Time;durP1;ratioP1;P1;durP2;ratioP2;P2;SDS_P1;SDS_P2;PMS_P1;PMS_P2;Temp;Humidity;BMP_temperature;BMP_pressure;BME280_temperature;BME280_humidity;BME280_pressure;Samples;Min_cycle;Max_cycle;Signal;HPM_P1;HPM_P2
2022/07/17 00:00:00;;;;;;;7.97;1.63;;;;;;;20.02;100.00;102570.91;5072416;28;20029;-58
2022/07/17 00:02:26;;;;;;;6.30;1.40;;;;;;;19.86;100.00;102570.34;5076077;28;20300;-53
2022/07/17 00:04:51;;;;;;;5.53;1.77;;;;;;;19.16;100.00;102574.50;5073408;28;20068;-56
2022/07/17 00:07:17;;;;;;;7.50;2.20;;;;;;;19.38;100.00;102574.25;5075316;28;20100;-57
2022/07/17 00:09:42;;;;;;;8.50;1.98;;;;;;;19.54;100.00;102574.84;5079854;28;20047;-55
2022/07/17 00:12:08;;;;;;;8.23;2.63;;;;;;;19.78;100.00;102570.56;5072267;28;20060;-57
2022/07/17 00:14:33;;;;;;;9.73;2.17;;;;;;;19.77;100.00;102574.34;5073551;28;20025;-55
2022/07/17 00:16:59;;;;;;;7.30;2.03;;;;;;;19.76;100.00;102578.09;5071070;28;20059;-53
2022/07/17 00:19:25;;;;;;;9.90;2.10;;;;;;;19.71;100.00;102569.78;5068245;28;20041;-55
2022/07/17 00:21:50;;;;;;;;;;;;;;;19.73;100.00;102570.41;5071561;28;20029;-55
2022/07/17 00:24:19;;;;;;;6.13;1.73;;;;;;;19.79;100.00;102569.53;5069642;28;19916;-54
2022/07/17 00:26:49;;;;;;;9.43;2.00;;;;;;;19.73;100.00;102573.09;5068966;28;20041;-59
2022/07/17 00:29:15;;;;;;;5.20;1.93;;;;;;;19.67;100.00;102563.13;5069867;28;20373;-52
2022/07/17 00:31:42;;;;;;;;;;;;;;;19.57;100.00;102561.66;5073595;28;20362;-54
2022/07/17 00:34:07;;;;;;;29.13;14.37;;;;;;;19.48;100.00;102561.06;5069006;28;19916;-58
2022/07/17 00:36:32;;;;;;;18.30;8.47;;;;;;;19.57;100.00;102569.81;5066947;28;20100;-54
2022/07/17 00:38:58;;;;;;;8.30;2.75;;;;;;;19.51;100.00;102572.56;5069671;28;20281;-56
2022/07/17 00:41:23;;;;;;;14.88;4.35;;;;;;;19.57;100.00;102575.25;5072822;28;20036;-55
2022/07/17 00:43:49;;;;;;;8.80;3.35;;;;;;;19.45;100.00;102579.69;5069068;28;21390;-56
2022/07/17 00:46:14;;;;;;;25.73;7.82;;;;;;;19.38;100.00;102581.59;5070411;28;20045;-58
2022/07/17 00:48:39;;;;;;;8.80;2.13;;;;;;;19.40;100.00;102582.19;5073328;28;20037;-56
2022/07/17 00:51:07;;;;;;;25.67;9.48;;;;;;;19.41;100.00;102573.84;5072643;28;20039;-55
2022/07/17 00:53:34;;;;;;;4.13;1.93;;;;;;;19.30;100.00;102569.88;5072601;28;20095;-56
2022/07/17 00:56:05;;;;;;;6.70;2.37;;;;;;;19.45;100.00;102574.25;5069022;28;20272;-57
2022/07/17 00:58:35;;;;;;;5.27;1.40;;;;;;;19.44;100.00;102569.88;5072042;28;20262;-57
2022/07/17 01:01:04;;;;;;;14.87;4.73;;;;;;;19.35;100.00;102561.94;5072869;28;20261;-54
2022/07/17 01:03:29;;;;;;;8.60;2.37;;;;;;;19.31;100.00;102566.13;5076110;28;20342;-56
2022/07/17 01:05:55;;;;;;;10.02;1.65;;;;;;;19.23;100.00;102571.78;5072234;28;20270;-58
2022/07/17 01:08:21;;;;;;;7.80;2.85;;;;;;;19.32;100.00;102569.69;5068766;28;20033;-58
2022/07/17 01:10:47;;;;;;;5.20;1.50;;;;;;;19.27;100.00;102564.91;5074162;28;20063;-56
2022/07/17 01:13:12;;;;;;;9.98;2.10;;;;;;;19.15;100.00;102563.88;5073715;28;20033;-56
2022/07/17 01:15:39;;;;;;;4.83;1.60;;;;;;;19.18;100.00;102567.00;5080498;28;20048;-57
2022/07/17 01:18:07;;;;;;;6.73;2.07;;;;;;;19.21;100.00;102571.19;5079124;28;20047;-57
2022/07/17 01:20:33;;;;;;;15.37;2.80;;;;;;;19.18;100.00;102560.75;5074248;28;20280;-58
2022/07/17 01:22:58;;;;;;;5.97;2.00;;;;;;;18.97;100.00;102562.63;5073978;28;20270;-57
2022/07/17 01:25:24;;;;;;;6.27;2.23;;;;;;;18.89;100.00;102568.25;5078902;28;20043;-57
2022/07/17 01:27:50;;;;;;;6.38;1.95;;;;;;;18.97;100.00;102568.03;5075102;28;20082;-57
2022/07/17 01:30:17;;;;;;;8.07;1.43;;;;;;;18.91;100.00;102569.72;5073256;28;20063;-59
2022/07/17 01:32:43;;;;;;;6.90;2.08;;;;;;;18.89;100.00;102569.09;5074937;28;20341;-56
2022/07/17 01:35:10;;;;;;;;;;;;;;;18.94;100.00;102570.34;5073772;28;20051;-57
2022/07/17 01:37:38;;;;;;;7.93;1.77;;;;;;;18.96;100.00;102571.81;5072755;28;19951;-57
2022/07/17 01:40:04;;;;;;;7.13;1.90;;;;;;;18.91;100.00;102568.88;5072930;28;20269;-54
2022/07/17 01:42:30;;;;;;;9.05;1.52;;;;;;;18.83;100.00;102563.66;5077580;28;20296;-59
2022/07/17 01:44:57;;;;;;;9.43;2.50;;;;;;;18.85;100.00;102569.72;5075051;28;20025;-55
2022/07/17 01:47:23;;;;;;;5.73;2.80;;;;;;;18.77;100.00;102577.00;5076527;28;20281;-58
2022/07/17 01:49:52;;;;;;;8.32;2.67;;;;;;;18.75;100.00;102573.69;5072253;28;20274;-54
2022/07/17 01:52:18;;;;;;;7.43;2.50;;;;;;;18.76;100.00;102559.09;5079696;28;20040;-57
2022/07/17 01:54:44;;;;;;;8.83;2.10;;;;;;;18.74;100.00;102563.88;5074258;28;20297;-54
2022/07/17 01:57:11;;;;;;;4.37;2.10;;;;;;;18.61;100.00;102561.16;5077172;28;20278;-55
2022/07/17 01:59:36;;;;;;;;;;;;;;;18.63;100.00;102561.78;5075085;28;20025;-53
2022/07/17 02:02:04;;;;;;;7.93;2.13;;;;;;;18.56;100.00;102558.25;5077281;28;19930;-55
2022/07/17 02:04:30;;;;;;;7.10;1.90;;;;;;;18.44;100.00;102564.25;5074317;28;20736;-56
2022/07/17 02:06:56;;;;;;;7.32;1.90;;;;;;;18.42;100.00;102554.69;5078167;28;20265;-58
2022/07/17 02:09:22;;;;;;;9.80;2.20;;;;;;;18.51;100.00;102552.63;5075231;28;20044;-55
2022/07/17 02:11:49;;;;;;;12.85;2.80;;;;;;;18.40;100.00;102554.06;5080202;28;20030;-55
2022/07/17 02:14:15;;;;;;;6.87;1.63;;;;;;;18.38;100.00;102548.84;5073453;28;20033;-57
2022/07/17 02:16:40;;;;;;;5.95;1.75;;;;;;;18.39;100.00;102561.34;5077894;28;20309;-55
2022/07/17 02:19:06;;;;;;;11.03;2.17;;;;;;;18.30;100.00;102559.88;5077456;28;20036;-56
2022/07/17 02:21:31;;;;;;;7.40;2.23;;;;;;;18.17;100.00;102564.22;5078679;28;20047;-55
2022/07/17 02:23:56;;;;;;;5.03;2.53;;;;;;;18.24;100.00;102566.94;5084569;28;20032;-57
2022/07/17 02:26:23;;;;;;;9.02;2.53;;;;;;;18.24;100.00;102566.94;5076831;28;20033;-55
2022/07/17 02:28:48;;;;;;;8.70;2.23;;;;;;;18.25;100.00;102556.97;5073520;28;20041;-55
2022/07/17 02:31:14;;;;;;;11.13;2.40;;;;;;;18.29;100.00;102547.38;5083712;28;20031;-56
2022/07/17 02:33:39;;;;;;;12.00;2.73;;;;;;;18.23;100.00;102543.63;5077323;28;20041;-55
2022/07/17 02:36:05;;;;;;;5.82;1.60;;;;;;;18.18;100.00;102554.22;5074551;28;20037;-58
2022/07/17 02:38:30;;;;;;;6.95;1.98;;;;;;;18.17;100.00;102553.38;5074009;28;20037;-56
2022/07/17 02:40:56;;;;;;;3.75;1.83;;;;;;;18.16;100.00;102554.41;5073764;28;20052;-58
2022/07/17 02:43:22;;;;;;;15.43;2.33;;;;;;;18.05;100.00;102553.16;5074665;28;20044;-58
2022/07/17 02:45:47;;;;;;;8.10;1.92;;;;;;;18.00;100.00;102549.38;5076790;28;20041;-58
2022/07/17 02:48:13;;;;;;;7.20;2.27;;;;;;;18.04;100.00;102554.19;5077682;28;20049;-58
2022/07/17 02:50:38;;;;;;;6.87;1.90;;;;;;;17.89;100.00;102554.31;5074871;28;20053;-57
2022/07/17 02:53:04;;;;;;;8.13;2.35;;;;;;;17.98;100.00;102570.38;5081818;28;20041;-59
2022/07/17 02:55:29;;;;;;;10.10;2.17;;;;;;;17.92;100.00;102574.75;5078222;28;20045;-59
2022/07/17 02:57:55;;;;;;;10.80;2.58;;;;;;;17.90;100.00;102574.94;5069888;28;20029;-56
2022/07/17 03:00:20;;;;;;;7.32;1.90;;;;;;;17.85;100.00;102577.41;5072248;28;20089;-54
2022/07/17 03:02:47;;;;;;;5.97;2.07;;;;;;;17.77;100.00;102573.00;5073509;28;20033;-58
2022/07/17 03:05:15;;;;;;;8.82;1.92;;;;;;;17.83;100.00;102570.53;5073702;28;20343;-54
2022/07/17 03:07:40;;;;;;;6.37;2.10;;;;;;;17.77;100.00;102581.13;5074624;28;20109;-59
2022/07/17 03:10:07;;;;;;;5.75;1.95;;;;;;;17.66;100.00;102575.44;5075407;28;20322;-54
2022/07/17 03:12:33;;;;;;;6.87;2.47;;;;;;;17.94;100.00;102571.81;5074994;28;20100;-55
2022/07/17 03:14:59;;;;;;;6.78;1.98;;;;;;;17.71;100.00;102570.25;5077446;28;20262;-57
2022/07/17 03:17:25;;;;;;;7.28;2.85;;;;;;;17.66;100.00;102564.63;5077279;28;20041;-58
2022/07/17 03:19:51;;;;;;;11.25;2.25;;;;;;;17.67;100.00;102575.25;5081159;28;20029;-52
2022/07/17 03:22:17;;;;;;;6.85;2.28;;;;;;;17.62;100.00;102570.44;5079893;28;20037;-57
2022/07/17 03:24:43;;;;;;;5.35;1.83;;;;;;;17.04;100.00;102552.63;5073002;28;20028;-57
2022/07/17 03:27:08;;;;;;;7.53;2.17;;;;;;;17.17;100.00;102561.84;5073037;28;20029;-53
2022/07/17 03:29:33;;;;;;;11.17;1.93;;;;;;;16.82;100.00;102553.66;5075824;28;20032;-54
2022/07/17 03:31:59;;;;;;;6.28;2.30;;;;;;;16.71;100.00;102557.72;5071664;28;20040;-56
2022/07/17 03:34:25;;;;;;;3.95;1.77;;;;;;;16.64;100.00;102560.38;5075740;28;20069;-55
2022/07/17 03:36:51;;;;;;;4.55;1.58;;;;;;;16.62;100.00;102565.16;5073860;28;20044;-56
2022/07/17 03:39:16;;;;;;;8.48;1.92;;;;;;;16.64;100.00;102555.00;5074632;28;20092;-58
2022/07/17 03:41:42;;;;;;;11.52;2.88;;;;;;;16.62;100.00;102567.84;5077712;28;20102;-56
2022/07/17 03:44:07;;;;;;;6.60;1.83;;;;;;;16.59;100.00;102570.91;5074840;28;20059;-56
2022/07/17 03:46:34;;;;;;;4.35;1.95;;;;;;;16.60;100.00;102572.59;5072950;28;20273;-57
2022/07/17 03:48:59;;;;;;;6.93;1.77;;;;;;;16.62;100.00;102584.88;5068041;28;20120;-55
2022/07/17 03:51:25;;;;;;;7.68;1.77;;;;;;;16.58;100.00;102599.81;5074798;28;20056;-57
2022/07/17 03:53:51;;;;;;;5.88;1.90;;;;;;;16.53;100.00;102599.56;5070771;28;20028;-57
2022/07/17 03:56:16;;;;;;;12.23;2.03;;;;;;;16.59;100.00;102597.91;5072932;28;20059;-58
2022/07/17 03:58:42;;;;;;;8.97;2.10;;;;;;;16.71;100.00;102588.28;5073537;28;20104;-57
2022/07/17 04:01:08;;;;;;;5.43;1.85;;;;;;;16.65;100.00;102580.97;5071945;28;20028;-57
2022/07/17 04:03:33;;;;;;;11.00;2.80;;;;;;;16.55;100.00;102575.88;5074951;28;20032;-57
2022/07/17 04:05:59;;;;;;;17.17;3.13;;;;;;;16.65;100.00;102585.50;5076490;28;20258;-59
2022/07/17 04:08:24;;;;;;;6.82;1.92;;;;;;;16.66;100.00;102590.75;5080559;28;20060;-57
2022/07/17 04:10:50;;;;;;;12.52;2.10;;;;;;;16.65;100.00;102580.97;5079931;28;20063;-56
2022/07/17 04:13:15;;;;;;;9.15;2.33;;;;;;;16.60;100.00;102581.53;5076380;28;20054;-55
2022/07/17 04:15:55;;;;;;;4.70;1.98;;;;;;;17.34;100.00;102584.00;5071372;28;20068;-58
2022/07/17 04:18:27;;;;;;;6.17;1.87;;;;;;;17.37;100.00;102590.91;5071637;28;20370;-58
2022/07/17 04:20:54;;;;;;;4.33;1.77;;;;;;;17.47;100.00;102600.31;5073694;28;20254;-59
2022/07/17 04:23:20;;;;;;;6.93;2.10;;;;;;;17.03;100.00;102602.28;5075991;28;20285;-56
2022/07/17 04:25:45;;;;;;;9.57;2.97;;;;;;;16.90;100.00;102605.69;5075085;28;20277;-58
2022/07/17 04:28:11;;;;;;;15.60;5.63;;;;;;;17.41;100.00;102603.81;5070821;28;20044;-56
2022/07/17 04:30:37;;;;;;;;;;;;;;;17.25;100.00;102596.84;5074934;28;20030;-58
2022/07/17 04:33:03;;;;;;;5.00;1.87;;;;;;;17.24;100.00;102597.88;5072671;28;19917;-58
2022/07/17 04:35:29;;;;;;;;;;;;;;;17.41;100.00;102608.41;5076860;28;20045;-58
2022/07/17 04:37:55;;;;;;;15.37;3.33;;;;;;;17.04;100.00;102609.38;5077316;28;20042;-56
2022/07/17 04:40:21;;;;;;;13.50;5.95;;;;;;;17.99;100.00;102612.63;5071377;28;20025;-57
2022/07/17 04:42:47;;;;;;;13.27;6.70;;;;;;;17.86;100.00;102614.25;5068390;28;20071;-54
2022/07/17 04:45:13;;;;;;;17.03;8.00;;;;;;;18.03;100.00;102612.06;5072955;28;20041;-58
2022/07/17 04:47:40;;;;;;;20.87;8.33;;;;;;;18.26;100.00;102612.78;5074676;28;20095;-59
2022/07/17 04:50:07;;;;;;;57.35;23.98;;;;;;;18.12;100.00;102604.59;5073588;28;20332;-57
2022/07/17 04:52:33;;;;;;;22.57;8.70;;;;;;;18.30;100.00;102605.91;5072584;28;20044;-58
2022/07/17 04:54:59;;;;;;;21.70;10.57;;;;;;;18.22;100.00;102609.63;5072483;28;20265;-59
2022/07/17 04:57:24;;;;;;;18.00;8.15;;;;;;;18.33;100.00;102603.63;5071724;28;20064;-59
2022/07/17 04:59:50;;;;;;;16.00;6.97;;;;;;;18.38;100.00;102599.47;5079335;28;20052;-57
2022/07/17 05:02:15;;;;;;;15.45;5.68;;;;;;;18.13;100.00;102608.16;5079278;28;20056;-57
2022/07/17 05:04:41;;;;;;;13.50;5.50;;;;;;;18.24;100.00;102607.56;5074426;28;20043;-57
2022/07/17 05:07:06;;;;;;;13.40;3.43;;;;;;;18.18;100.00;102606.50;5073502;28;20088;-58
2022/07/17 05:09:32;;;;;;;11.30;4.57;;;;;;;18.30;100.00;102598.59;5069780;28;20363;-58
2022/07/17 05:11:57;;;;;;;9.52;2.80;;;;;;;18.38;100.00;102594.06;5074279;28;20033;-59
2022/07/17 05:14:23;;;;;;;8.23;3.58;;;;;;;18.47;100.00;102595.53;5067937;28;20068;-59
2022/07/17 05:16:48;;;;;;;8.93;2.42;;;;;;;18.51;100.00;102599.50;5072593;28;20032;-57
2022/07/17 05:19:14;;;;;;;9.93;2.92;;;;;;;18.57;100.00;102590.56;5072154;28;20033;-57
2022/07/17 05:21:39;;;;;;;9.63;3.97;;;;;;;18.37;100.00;102589.69;5081145;28;20154;-59
2022/07/17 05:24:05;;;;;;;7.40;3.47;;;;;;;18.56;100.00;102597.00;5076771;28;20274;-58
2022/07/17 05:26:31;;;;;;;10.25;4.47;;;;;;;18.56;100.00;102601.59;5074983;28;20041;-58
2022/07/17 05:28:56;;;;;;;7.63;2.90;;;;;;;18.49;100.00;102597.00;5076460;28;20037;-61
2022/07/17 05:31:22;;;;;;;9.90;3.65;;;;;;;18.38;100.00;102603.00;5077384;28;20036;-58
2022/07/17 05:33:48;;;;;;;9.50;3.15;;;;;;;18.54;100.00;102609.91;5074026;28;20038;-58
2022/07/17 05:36:13;;;;;;;11.30;3.30;;;;;;;18.44;100.00;102613.00;5068616;28;20041;-58
2022/07/17 05:38:38;;;;;;;8.87;3.77;;;;;;;18.40;100.00;102603.63;5067485;28;20036;-59
2022/07/17 05:41:05;;;;;;;12.20;3.50;;;;;;;18.43;100.00;102608.63;5071203;28;20089;-58
2022/07/17 05:43:30;;;;;;;7.22;2.60;;;;;;;18.54;100.00;102603.69;5071341;28;20063;-58
2022/07/17 05:45:56;;;;;;;7.00;2.67;;;;;;;18.65;100.00;102597.63;5070886;28;20039;-59
2022/07/17 05:48:22;;;;;;;11.35;2.63;;;;;;;18.66;100.00;102595.78;5072546;28;20291;-58
2022/07/17 05:50:48;;;;;;;7.50;2.95;;;;;;;18.70;100.00;102595.16;5075143;28;20067;-59
2022/07/17 05:53:14;;;;;;;7.10;2.47;;;;;;;18.70;100.00;102588.88;5079694;28;20052;-60
2022/07/17 05:55:40;;;;;;;11.20;2.90;;;;;;;18.87;100.00;102592.88;5078794;28;20174;-58
2022/07/17 05:58:07;;;;;;;7.40;2.00;;;;;;;18.98;100.00;102580.59;5075355;28;20041;-58
2022/07/17 06:00:33;;;;;;;13.45;3.13;;;;;;;19.03;100.00;102586.22;5075806;28;20269;-58
2022/07/17 06:02:59;;;;;;;8.57;2.72;;;;;;;19.09;100.00;102580.97;5070835;28;20059;-57
2022/07/17 06:05:28;;;;;;;9.73;2.53;;;;;;;19.16;100.00;102585.34;5073545;28;20040;-57
2022/07/17 06:07:56;;;;;;;12.67;3.27;;;;;;;19.21;100.00;102584.72;5073602;28;20029;-57
2022/07/17 06:10:22;;;;;;;5.03;2.20;;;;;;;19.23;100.00;102601.63;5073945;28;20285;-58
2022/07/17 06:12:47;;;;;;;7.40;2.70;;;;;;;19.24;100.00;102614.13;5075891;28;20334;-57
2022/07/17 06:15:13;;;;;;;9.90;2.73;;;;;;;19.31;100.00;102603.28;5077616;28;20040;-58
2022/07/17 06:17:38;;;;;;;17.42;2.95;;;;;;;19.42;100.00;102597.19;5074152;28;20276;-59
2022/07/17 06:20:05;;;;;;;10.32;2.13;;;;;;;19.49;100.00;102605.34;5078480;28;20041;-58
2022/07/17 06:22:30;;;;;;;6.68;2.38;;;;;;;19.59;100.00;102605.72;5073092;28;20044;-58
2022/07/17 06:24:56;;;;;;;5.00;2.28;;;;;;;19.67;100.00;102603.81;5078026;28;20040;-58
2022/07/17 06:27:22;;;;;;;5.93;2.17;;;;;;;19.73;100.00;102605.69;5075424;28;20037;-59
2022/07/17 06:29:49;;;;;;;7.03;2.30;;;;;;;19.76;100.00;102611.53;5069869;28;20033;-58
2022/07/17 06:32:16;;;;;;;7.13;2.50;;;;;;;19.84;100.00;102621.31;5073443;28;20301;-58
2022/07/17 06:34:42;;;;;;;8.47;2.40;;;;;;;19.86;100.00;102635.50;5079014;28;20057;-58
2022/07/17 06:37:07;;;;;;;6.00;2.08;;;;;;;19.89;100.00;102629.63;5072547;28;20288;-58
2022/07/17 06:39:33;;;;;;;8.45;2.28;;;;;;;19.89;100.00;102635.06;5075844;28;20109;-58
2022/07/17 06:41:58;;;;;;;8.93;2.90;;;;;;;20.00;100.00;102628.16;5069674;28;20060;-59
2022/07/17 06:44:25;;;;;;;9.30;2.10;;;;;;;19.98;100.00;102632.97;5073324;28;20105;-58
2022/07/17 06:46:50;;;;;;;6.93;2.25;;;;;;;20.12;100.00;102641.91;5082057;28;20033;-60
2022/07/17 06:49:16;;;;;;;11.35;3.38;;;;;;;20.10;100.00;102648.59;5077304;28;20101;-59
2022/07/17 06:51:42;;;;;;;5.97;2.80;;;;;;;20.18;100.00;102641.03;5075027;28;20100;-59
2022/07/17 06:54:08;;;;;;;10.93;3.07;;;;;;;20.15;100.00;102652.34;5073542;28;20033;-58
2022/07/17 06:56:33;;;;;;;7.78;2.58;;;;;;;20.27;100.00;102641.63;5078493;28;20032;-59
2022/07/17 06:58:59;;;;;;;9.13;3.10;;;;;;;20.30;100.00;102643.88;5076902;28;20060;-59
2022/07/17 07:01:24;;;;;;;11.00;2.58;;;;;;;20.27;100.00;102646.19;5069942;28;20063;-56
2022/07/17 07:03:49;;;;;;;8.18;2.60;;;;;;;20.32;100.00;102640.97;5069510;28;20093;-58
2022/07/17 07:06:15;;;;;;;6.50;2.40;;;;;;;20.43;100.00;102647.59;5070519;28;20064;-57
2022/07/17 07:08:40;;;;;;;6.80;2.23;;;;;;;20.48;100.00;102648.59;5073419;28;20041;-58
2022/07/17 07:11:06;;;;;;;17.67;7.38;;;;;;;20.42;100.00;102657.63;5069422;28;20115;-59
2022/07/17 07:13:32;;;;;;;17.65;7.78;;;;;;;20.58;100.00;102658.16;5073399;28;20047;-58
2022/07/17 07:15:57;;;;;;;13.20;5.28;;;;;;;20.71;100.00;102660.78;5071197;28;20051;-58
2022/07/17 07:18:23;;;;;;;7.45;1.55;;;;;;;20.74;100.00;102663.06;5072614;28;20068;-59
2022/07/17 07:20:48;;;;;;;6.10;2.03;;;;;;;19.91;100.00;102665.59;5075890;28;20029;-58
2022/07/17 07:23:14;;;;;;;8.35;2.80;;;;;;;19.93;100.00;102665.34;5078611;28;20051;-58
2022/07/17 07:25:39;;;;;;;10.73;3.20;;;;;;;19.94;100.00;102666.19;5071174;28;20036;-59
2022/07/17 07:28:05;;;;;;;10.35;2.25;;;;;;;20.04;100.00;102674.72;5067344;28;20059;-58
2022/07/17 07:30:31;;;;;;;6.43;2.00;;;;;;;20.30;100.00;102665.63;5070991;28;20093;-59
2022/07/17 07:32:57;;;;;;;7.00;1.40;;;;;;;20.08;100.00;102659.69;5069920;28;20044;-59
2022/07/17 07:35:22;;;;;;;5.70;2.40;;;;;;;20.16;100.00;102659.44;5070094;28;20037;-59
2022/07/17 07:37:48;;;;;;;10.35;3.50;;;;;;;20.22;100.00;102665.03;5072878;28;20079;-59
2022/07/17 07:40:14;;;;;;;9.70;2.35;;;;;;;20.18;100.00;102661.91;5072036;28;20032;-59
2022/07/17 07:42:40;;;;;;;6.20;2.05;;;;;;;20.49;100.00;102655.69;5072162;28;20045;-60
2022/07/17 07:45:07;;;;;;;9.50;2.13;;;;;;;20.39;100.00;102663.50;5072202;28;20052;-59
2022/07/17 07:47:33;;;;;;;;;;;;;;;20.40;100.00;102656.16;5077152;28;20055;-58
2022/07/17 07:49:58;;;;;;;9.27;2.37;;;;;;;21.21;100.00;102659.16;5072973;28;19984;-61
2022/07/17 07:52:24;;;;;;;7.75;2.72;;;;;;;21.31;100.00;102661.38;5070857;28;20039;-59
2022/07/17 07:54:50;;;;;;;9.45;1.40;;;;;;;21.30;100.00;102663.28;5072236;28;20033;-59
2022/07/17 07:57:15;;;;;;;6.13;1.80;;;;;;;21.39;100.00;102673.88;5068664;28;20052;-60
2022/07/17 07:59:41;;;;;;;8.63;2.60;;;;;;;21.48;100.00;102670.63;5073555;28;20025;-60
2022/07/17 08:02:06;;;;;;;6.40;2.08;;;;;;;21.49;100.00;102671.50;5070765;28;20057;-59
2022/07/17 08:04:32;;;;;;;8.88;2.30;;;;;;;21.52;100.00;102675.63;5070527;28;20033;-58
2022/07/17 08:06:58;;;;;;;;;;;;;;;21.22;100.00;102669.03;5071483;28;20044;-59
2022/07/17 08:09:24;;;;;;;9.33;2.03;;;;;;;21.48;100.00;102678.00;5077209;28;19916;-59
2022/07/17 08:11:49;;;;;;;5.70;1.30;;;;;;;21.39;100.00;102676.59;5071982;28;20037;-58
2022/07/17 08:14:15;;;;;;;11.38;1.88;;;;;;;21.51;100.00;102673.97;5072562;28;20049;-59
2022/07/17 08:16:40;;;;;;;8.20;1.20;;;;;;;21.65;100.00;102680.13;5072338;28;20036;-59
2022/07/17 08:19:06;;;;;;;10.35;2.22;;;;;;;20.83;100.00;102673.72;5070075;28;20115;-58
2022/07/17 08:21:31;;;;;;;4.20;1.47;;;;;;;20.58;100.00;102669.84;5072295;28;20020;-59
2022/07/17 08:23:57;;;;;;;7.63;2.25;;;;;;;20.86;100.00;102668.66;5067045;28;20343;-59
2022/07/17 08:26:22;;;;;;;8.05;2.80;;;;;;;21.03;100.00;102668.13;5074685;28;20092;-57
2022/07/17 08:28:48;;;;;;;7.32;2.55;;;;;;;21.29;100.00;102677.09;5071764;28;20044;-58
2022/07/17 08:31:13;;;;;;;5.93;1.83;;;;;;;21.31;100.00;102681.28;5067302;28;20108;-60
2022/07/17 08:33:38;;;;;;;10.75;2.65;;;;;;;21.45;100.00;102675.69;5068051;28;20067;-58
2022/07/17 08:36:04;;;;;;;3.78;1.35;;;;;;;21.53;100.00;102677.28;5071456;28;20060;-59
2022/07/17 08:38:30;;;;;;;8.00;1.80;;;;;;;21.61;100.00;102675.13;5068001;28;20064;-58
2022/07/17 08:40:57;;;;;;;8.15;2.00;;;;;;;21.84;100.00;102678.28;5069741;28;20029;-56
2022/07/17 08:43:23;;;;;;;7.17;1.30;;;;;;;21.86;100.00;102674.25;5066431;28;20053;-58
2022/07/17 08:45:49;;;;;;;9.95;2.40;;;;;;;21.89;100.00;102679.22;5070168;28;20035;-59
2022/07/17 08:48:17;;;;;;;7.83;1.40;;;;;;;22.04;100.00;102678.03;5066276;28;20145;-58
2022/07/17 08:50:44;;;;;;;5.30;1.50;;;;;;;21.80;100.00;102661.53;5067927;28;20033;-57
2022/07/17 08:53:09;;;;;;;;;;;;;;;22.01;100.00;102667.59;5064812;28;20039;-56
2022/07/17 08:55:35;;;;;;;6.77;2.70;;;;;;;22.30;100.00;102670.56;5066659;28;19921;-59
2022/07/17 08:58:01;;;;;;;13.73;5.57;;;;;;;22.39;100.00;102669.19;5066886;28;20040;-57
2022/07/17 09:00:28;;;;;;;7.35;2.67;;;;;;;22.45;100.00;102661.97;5070762;28;20029;-58
2022/07/17 09:02:58;;;;;;;7.23;1.97;;;;;;;22.44;100.00;102655.69;5071556;28;20029;-58
2022/07/17 09:05:26;;;;;;;4.23;1.77;;;;;;;22.49;100.00;102655.88;5069125;28;20040;-58
2022/07/17 09:07:51;;;;;;;8.37;2.33;;;;;;;22.62;100.00;102657.56;5069268;28;20037;-59
2022/07/17 09:10:17;;;;;;;7.60;1.52;;;;;;;22.62;100.00;102656.75;5075589;28;20093;-59
2022/07/17 09:12:42;;;;;;;6.90;1.60;;;;;;;22.63;100.00;102651.03;5067861;28;20120;-56
2022/07/17 09:15:18;;;;;;;5.63;1.38;;;;;;;22.71;100.00;102655.34;5067400;28;20064;-56
2022/07/17 09:17:55;;;;;;;6.30;1.73;;;;;;;22.88;100.00;102654.66;5072718;28;20063;-59
2022/07/17 09:20:22;;;;;;;4.47;1.17;;;;;;;22.70;100.00;102658.28;5068333;28;20033;-59
2022/07/17 09:23:05;;;;;;;4.10;1.50;;;;;;;22.70;100.00;102659.13;5072396;28;20036;-59
2022/07/17 09:25:33;;;;;;;24.53;11.90;;;;;;;22.57;100.00;102664.75;5074686;28;20028;-59
2022/07/17 09:28:01;;;;;;;69.57;39.80;;;;;;;22.95;100.00;102666.28;5072416;28;20067;-61
2022/07/17 09:30:27;;;;;;;52.97;28.33;;;;;;;23.15;100.00;102673.31;5066568;28;20033;-59
2022/07/17 09:32:54;;;;;;;54.40;27.25;;;;;;;23.01;100.00;102657.16;5079266;28;20037;-58
2022/07/17 09:35:21;;;;;;;11.90;4.47;;;;;;;23.09;100.00;102657.91;5073275;28;20036;-60
2022/07/17 09:37:47;;;;;;;13.17;5.60;;;;;;;23.17;100.00;102665.72;5071688;28;20059;-59
2022/07/17 09:42:59;;;;;;;212.80;114.10;;;;;;;24.03;98.29;102667.09;5070849;28;20063;-60
2022/07/17 09:45:24;;;;;;;;;;;;;;;24.28;93.70;102677.69;5075830;28;20036;-60
2022/07/17 09:47:52;;;;;;;191.27;119.90;;;;;;;24.87;91.09;102675.75;5074089;28;19947;-60
2022/07/17 09:50:19;;;;;;;39.93;18.47;;;;;;;25.29;83.82;102674.50;5074853;28;20044;-60
2022/07/17 09:52:45;;;;;;;;;;;;;;;25.62;80.73;102673.63;5077916;28;20029;-60
2022/07/17 09:55:10;;;;;;;82.87;46.37;;;;;;;26.31;75.72;102676.13;5077362;28;19944;-58
2022/07/17 09:57:40;;;;;;;75.28;42.78;;;;;;;26.81;73.18;102673.28;5074121;28;20033;-60
2022/07/17 10:00:15;;;;;;;76.05;42.75;;;;;;;27.18;69.79;102687.03;5071256;28;20060;-59
2022/07/17 10:02:42;;;;;;;37.33;22.48;;;;;;;27.58;66.06;102686.75;5071075;28;20029;-59
2022/07/17 10:05:15;;;;;;;47.38;26.50;;;;;;;28.05;63.73;102682.25;5066072;28;20056;-59
2022/07/17 10:07:45;;;;;;;46.40;24.70;;;;;;;28.93;59.41;102674.16;5068007;28;20041;-59
2022/07/17 10:10:12;;;;;;;28.08;13.93;;;;;;;29.16;56.78;102683.75;5069640;28;20025;-60
2022/07/17 10:12:41;;;;;;;18.00;9.32;;;;;;;29.42;55.38;102688.44;5066527;28;20029;-60
2022/07/17 10:15:07;;;;;;;26.05;14.23;;;;;;;29.29;54.88;102685.09;5069724;28;20036;-59
2022/07/17 10:17:34;;;;;;;33.20;19.08;;;;;;;29.79;53.56;102681.69;5069033;28;20104;-59
2022/07/17 10:20:00;;;;;;;22.80;11.90;;;;;;;30.28;51.53;102679.25;5070803;28;20028;-59
2022/07/17 10:22:26;;;;;;;22.20;12.00;;;;;;;30.58;50.07;102677.34;5069177;28;20059;-59
2022/07/17 10:25:04;;;;;;;12.77;6.25;;;;;;;30.93;48.23;102683.72;5071923;28;21057;-59
2022/07/17 10:27:30;;;;;;;18.52;9.48;;;;;;;31.10;47.73;102685.19;5074028;28;20032;-58
2022/07/17 10:30:05;;;;;;;11.75;6.53;;;;;;;31.43;46.22;102685.44;5068373;28;20033;-59
2022/07/17 10:32:32;;;;;;;17.15;10.68;;;;;;;31.54;45.45;102686.16;5068323;28;20025;-59
2022/07/17 10:35:01;;;;;;;47.63;30.15;;;;;;;31.66;44.49;102696.78;5071424;28;20095;-59
2022/07/17 10:37:39;;;;;;;52.95;33.17;;;;;;;32.09;41.93;102694.03;5076452;28;20032;-59
2022/07/17 10:40:10;;;;;;;121.60;73.80;;;;;;;32.36;42.38;102692.56;5069750;28;20047;-59
2022/07/17 10:42:39;;;;;;;6.32;1.58;;;;;;;32.52;39.89;102698.66;5072469;28;20121;-59
2022/07/17 10:45:06;;;;;;;107.97;70.07;;;;;;;32.77;40.89;102687.47;5069410;28;20119;-58
2022/07/17 10:47:46;;;;;;;69.30;35.63;;;;;;;32.97;38.92;102683.53;5071741;28;20037;-60
2022/07/17 10:50:12;;;;;;;56.55;36.13;;;;;;;32.76;39.91;102697.72;5070424;28;20104;-59
2022/07/17 10:52:38;;;;;;;29.05;17.77;;;;;;;32.61;39.00;102693.25;5067416;28;20037;-60
2022/07/17 10:55:05;;;;;;;28.08;18.63;;;;;;;32.74;38.94;102698.00;5071547;28;20044;-59
2022/07/17 10:57:32;;;;;;;27.20;16.23;;;;;;;32.95;38.53;102700.44;5069945;28;20093;-60
2022/07/17 10:59:57;;;;;;;13.70;8.25;;;;;;;33.00;37.92;102700.38;5071030;28;20024;-59
2022/07/17 11:02:30;;;;;;;25.25;15.73;;;;;;;33.06;39.02;102695.53;5070618;28;20066;-59
2022/07/17 11:05:09;;;;;;;5.03;2.67;;;;;;;33.60;36.95;102689.53;5073062;28;20044;-59
2022/07/17 11:07:34;;;;;;;12.70;8.30;;;;;;;33.88;37.43;102693.06;5066030;28;20040;-58
2022/07/17 11:10:00;;;;;;;12.25;7.28;;;;;;;34.21;37.14;102688.50;5068632;28;20033;-58
2022/07/17 11:12:33;;;;;;;15.48;7.53;;;;;;;34.14;36.97;102689.78;5069028;28;20100;-58
2022/07/17 11:15:03;;;;;;;10.25;5.75;;;;;;;34.25;37.07;102689.50;5069587;28;20033;-58